sensor_id;sensor_type;location;lat;lon;timestamp;P1;durP1;ratioP1;P2;durP2;ratioP2
82990;SDS011;72806;50.832;4.864;2023-09-18T00:00:33;10.68;;;7.22;;
82990;SDS011;72806;50.832;4.864;2023-09-18T00:03:01;8.85;;;6.95;;
82990;SDS011;72806;50.832;4.864;2023-09-18T00:05:28;8.80;;;6.80;;
82990;SDS011;72806;50.832;4.864;2023-09-18T00:07:55;9.85;;;7.40;;
82990;SDS011;72806;50.832;4.864;2023-09-18T00:10:22;10.55;;;7.45;;
82990;SDS011;72806;50.832;4.864;2023-09-18T00:12:51;11.35;;;7.13;;
82990;SDS011;72806;50.832;4.864;2023-09-18T00:15:18;8.63;;;7.35;;
82990;SDS011;72806;50.832;4.864;2023-09-18T00:17:47;13.25;;;7.20;;
82990;SDS011;72806;50.832;4.864;2023-09-18T00:20:15;8.43;;;6.47;;
82990;SDS011;72806;50.832;4.864;2023-09-18T00:22:43;11.50;;;6.72;;
82990;SDS011;72806;50.832;4.864;2023-09-18T00:25:11;10.95;;;6.57;;
82990;SDS011;72806;50.832;4.864;2023-09-18T00:27:39;12.88;;;7.18;;
82990;SDS011;72806;50.832;4.864;2023-09-18T00:30:07;8.85;;;6.78;;
82990;SDS011;72806;50.832;4.864;2023-09-18T00:32:34;11.63;;;7.50;;
82990;SDS011;72806;50.832;4.864;2023-09-18T00:35:02;12.00;;;7.00;;
82990;SDS011;72806;50.832;4.864;2023-09-18T00:37:29;15.13;;;7.13;;
82990;SDS011;72806;50.832;4.864;2023-09-18T00:39:56;12.45;;;7.15;;
82990;SDS011;72806;50.832;4.864;2023-09-18T00:42:23;10.55;;;6.28;;
82990;SDS011;72806;50.832;4.864;2023-09-18T00:44:50;11.32;;;6.18;;
82990;SDS011;72806;50.832;4.864;2023-09-18T00:47:18;13.07;;;6.43;;
82990;SDS011;72806;50.832;4.864;2023-09-18T00:49:47;10.00;;;6.32;;
82990;SDS011;72806;50.832;4.864;2023-09-18T00:52:17;8.13;;;6.47;;
82990;SDS011;72806;50.832;4.864;2023-09-18T00:54:45;13.52;;;6.78;;
82990;SDS011;72806;50.832;4.864;2023-09-18T00:57:14;7.65;;;5.88;;
82990;SDS011;72806;50.832;4.864;2023-09-18T00:59:41;9.05;;;6.80;;
82990;SDS011;72806;50.832;4.864;2023-09-18T01:02:09;8.77;;;6.57;;
82990;SDS011;72806;50.832;4.864;2023-09-18T01:04:36;11.82;;;6.38;;
82990;SDS011;72806;50.832;4.864;2023-09-18T01:07:09;12.35;;;6.40;;
82990;SDS011;72806;50.832;4.864;2023-09-18T01:09:37;9.05;;;5.47;;
82990;SDS011;72806;50.832;4.864;2023-09-18T01:12:06;11.82;;;6.38;;
82990;SDS011;72806;50.832;4.864;2023-09-18T01:14:39;9.68;;;6.10;;
82990;SDS011;72806;50.832;4.864;2023-09-18T01:17:09;9.52;;;5.88;;
82990;SDS011;72806;50.832;4.864;2023-09-18T01:19:39;9.32;;;5.90;;
82990;SDS011;72806;50.832;4.864;2023-09-18T01:22:09;12.32;;;6.43;;
82990;SDS011;72806;50.832;4.864;2023-09-18T01:24:38;10.70;;;6.22;;
82990;SDS011;72806;50.832;4.864;2023-09-18T01:27:07;11.73;;;6.40;;
82990;SDS011;72806;50.832;4.864;2023-09-18T01:29:35;10.52;;;6.50;;
82990;SDS011;72806;50.832;4.864;2023-09-18T01:32:03;12.32;;;6.15;;
82990;SDS011;72806;50.832;4.864;2023-09-18T01:34:31;13.65;;;7.00;;
82990;SDS011;72806;50.832;4.864;2023-09-18T01:37:01;13.50;;;7.32;;
82990;SDS011;72806;50.832;4.864;2023-09-18T01:39:30;16.60;;;6.40;;
82990;SDS011;72806;50.832;4.864;2023-09-18T01:42:00;12.43;;;6.88;;
82990;SDS011;72806;50.832;4.864;2023-09-18T01:44:29;17.20;;;7.35;;
82990;SDS011;72806;50.832;4.864;2023-09-18T01:46:56;14.00;;;6.65;;
82990;SDS011;72806;50.832;4.864;2023-09-18T01:49:28;12.35;;;6.85;;
82990;SDS011;72806;50.832;4.864;2023-09-18T01:51:56;18.33;;;6.75;;
82990;SDS011;72806;50.832;4.864;2023-09-18T01:54:23;11.98;;;6.38;;
82990;SDS011;72806;50.832;4.864;2023-09-18T01:56:50;15.20;;;7.32;;
82990;SDS011;72806;50.832;4.864;2023-09-18T01:59:19;16.08;;;7.18;;
82990;SDS011;72806;50.832;4.864;2023-09-18T02:01:46;13.65;;;7.10;;
82990;SDS011;72806;50.832;4.864;2023-09-18T02:04:14;10.15;;;6.78;;
82990;SDS011;72806;50.832;4.864;2023-09-18T02:06:40;12.40;;;7.47;;
82990;SDS011;72806;50.832;4.864;2023-09-18T02:09:07;14.38;;;6.53;;
82990;SDS011;72806;50.832;4.864;2023-09-18T02:11:36;10.00;;;5.93;;
82990;SDS011;72806;50.832;4.864;2023-09-18T02:14:04;10.20;;;5.72;;
82990;SDS011;72806;50.832;4.864;2023-09-18T02:16:33;8.43;;;5.35;;
82990;SDS011;72806;50.832;4.864;2023-09-18T02:19:01;9.27;;;5.57;;
82990;SDS011;72806;50.832;4.864;2023-09-18T02:21:28;9.45;;;5.40;;
82990;SDS011;72806;50.832;4.864;2023-09-18T02:23:56;9.60;;;5.50;;
82990;SDS011;72806;50.832;4.864;2023-09-18T02:26:24;8.98;;;5.68;;
82990;SDS011;72806;50.832;4.864;2023-09-18T02:28:51;12.63;;;6.78;;
82990;SDS011;72806;50.832;4.864;2023-09-18T02:31:19;11.98;;;6.25;;
82990;SDS011;72806;50.832;4.864;2023-09-18T02:33:48;11.18;;;5.95;;
82990;SDS011;72806;50.832;4.864;2023-09-18T02:36:15;13.82;;;5.68;;
82990;SDS011;72806;50.832;4.864;2023-09-18T02:38:42;9.77;;;5.53;;
82990;SDS011;72806;50.832;4.864;2023-09-18T02:41:09;14.80;;;6.15;;
82990;SDS011;72806;50.832;4.864;2023-09-18T02:43:36;10.55;;;6.68;;
82990;SDS011;72806;50.832;4.864;2023-09-18T02:46:03;9.82;;;5.75;;
82990;SDS011;72806;50.832;4.864;2023-09-18T02:48:30;10.25;;;5.70;;
82990;SDS011;72806;50.832;4.864;2023-09-18T02:50:59;10.23;;;5.25;;
82990;SDS011;72806;50.832;4.864;2023-09-18T02:53:26;9.30;;;5.40;;
82990;SDS011;72806;50.832;4.864;2023-09-18T02:55:53;7.55;;;4.85;;
82990;SDS011;72806;50.832;4.864;2023-09-18T02:58:21;11.60;;;4.38;;
82990;SDS011;72806;50.832;4.864;2023-09-18T03:00:51;6.75;;;4.10;;
82990;SDS011;72806;50.832;4.864;2023-09-18T03:03:19;10.35;;;4.50;;
82990;SDS011;72806;50.832;4.864;2023-09-18T03:05:46;6.70;;;4.45;;
82990;SDS011;72806;50.832;4.864;2023-09-18T03:08:15;6.70;;;4.28;;
82990;SDS011;72806;50.832;4.864;2023-09-18T03:10:42;7.22;;;3.97;;
82990;SDS011;72806;50.832;4.864;2023-09-18T03:13:10;6.15;;;4.32;;
82990;SDS011;72806;50.832;4.864;2023-09-18T03:15:40;4.00;;;2.90;;
82990;SDS011;72806;50.832;4.864;2023-09-18T03:18:10;7.05;;;3.40;;
82990;SDS011;72806;50.832;4.864;2023-09-18T03:20:37;4.20;;;2.42;;
82990;SDS011;72806;50.832;4.864;2023-09-18T03:23:04;5.78;;;2.80;;
82990;SDS011;72806;50.832;4.864;2023-09-18T03:25:32;7.70;;;2.53;;
82990;SDS011;72806;50.832;4.864;2023-09-18T03:27:59;5.30;;;2.45;;
82990;SDS011;72806;50.832;4.864;2023-09-18T03:30:26;6.00;;;2.15;;
82990;SDS011;72806;50.832;4.864;2023-09-18T03:32:53;4.85;;;2.10;;
82990;SDS011;72806;50.832;4.864;2023-09-18T03:35:20;4.82;;;1.88;;
82990;SDS011;72806;50.832;4.864;2023-09-18T03:37:48;6.43;;;1.77;;
82990;SDS011;72806;50.832;4.864;2023-09-18T03:40:16;4.85;;;1.52;;
82990;SDS011;72806;50.832;4.864;2023-09-18T03:42:45;2.15;;;1.35;;
82990;SDS011;72806;50.832;4.864;2023-09-18T03:45:13;3.72;;;1.60;;
82990;SDS011;72806;50.832;4.864;2023-09-18T03:47:42;5.18;;;1.73;;
82990;SDS011;72806;50.832;4.864;2023-09-18T03:50:10;3.10;;;1.83;;
82990;SDS011;72806;50.832;4.864;2023-09-18T03:52:38;2.05;;;1.33;;
82990;SDS011;72806;50.832;4.864;2023-09-18T03:55:05;1.27;;;1.17;;
82990;SDS011;72806;50.832;4.864;2023-09-18T03:57:33;4.38;;;1.30;;
82990;SDS011;72806;50.832;4.864;2023-09-18T04:00:03;2.72;;;1.42;;
82990;SDS011;72806;50.832;4.864;2023-09-18T04:02:32;5.35;;;1.50;;
82990;SDS011;72806;50.832;4.864;2023-09-18T04:05:00;2.88;;;1.42;;
82990;SDS011;72806;50.832;4.864;2023-09-18T04:07:27;3.85;;;1.40;;
82990;SDS011;72806;50.832;4.864;2023-09-18T04:09:54;3.97;;;1.45;;
82990;SDS011;72806;50.832;4.864;2023-09-18T04:12:21;1.75;;;1.42;;
82990;SDS011;72806;50.832;4.864;2023-09-18T04:14:48;2.33;;;1.40;;
82990;SDS011;72806;50.832;4.864;2023-09-18T04:17:17;4.40;;;1.60;;
82990;SDS011;72806;50.832;4.864;2023-09-18T04:19:46;3.35;;;1.38;;
82990;SDS011;72806;50.832;4.864;2023-09-18T04:22:13;2.03;;;1.35;;
82990;SDS011;72806;50.832;4.864;2023-09-18T04:24:40;2.92;;;1.73;;
82990;SDS011;72806;50.832;4.864;2023-09-18T04:27:07;2.42;;;1.75;;
82990;SDS011;72806;50.832;4.864;2023-09-18T04:29:35;5.28;;;1.55;;
82990;SDS011;72806;50.832;4.864;2023-09-18T04:32:02;3.65;;;1.40;;
82990;SDS011;72806;50.832;4.864;2023-09-18T04:34:32;3.90;;;1.38;;
82990;SDS011;72806;50.832;4.864;2023-09-18T04:37:00;2.85;;;1.48;;
82990;SDS011;72806;50.832;4.864;2023-09-18T04:39:28;4.05;;;1.85;;
82990;SDS011;72806;50.832;4.864;2023-09-18T04:41:59;1.92;;;1.50;;
82990;SDS011;72806;50.832;4.864;2023-09-18T04:44:29;3.20;;;1.65;;
82990;SDS011;72806;50.832;4.864;2023-09-18T04:46:55;2.78;;;1.50;;
82990;SDS011;72806;50.832;4.864;2023-09-18T04:49:23;5.70;;;1.90;;
82990;SDS011;72806;50.832;4.864;2023-09-18T04:51:52;2.85;;;1.92;;
82990;SDS011;72806;50.832;4.864;2023-09-18T04:54:19;3.00;;;1.55;;
82990;SDS011;72806;50.832;4.864;2023-09-18T04:56:46;2.35;;;1.75;;
82990;SDS011;72806;50.832;4.864;2023-09-18T04:59:13;3.15;;;1.77;;
82990;SDS011;72806;50.832;4.864;2023-09-18T05:01:41;4.20;;;1.75;;
82990;SDS011;72806;50.832;4.864;2023-09-18T05:04:09;3.47;;;1.67;;
82990;SDS011;72806;50.832;4.864;2023-09-18T05:06:36;3.95;;;1.98;;
82990;SDS011;72806;50.832;4.864;2023-09-18T05:09:05;3.30;;;1.85;;
82990;SDS011;72806;50.832;4.864;2023-09-18T05:11:32;2.58;;;1.77;;
82990;SDS011;72806;50.832;4.864;2023-09-18T05:13:59;3.90;;;1.65;;
82990;SDS011;72806;50.832;4.864;2023-09-18T05:16:26;4.75;;;2.03;;
82990;SDS011;72806;50.832;4.864;2023-09-18T05:18:53;2.38;;;1.77;;
82990;SDS011;72806;50.832;4.864;2023-09-18T05:21:20;2.78;;;1.80;;
82990;SDS011;72806;50.832;4.864;2023-09-18T05:23:50;4.22;;;2.10;;
82990;SDS011;72806;50.832;4.864;2023-09-18T05:26:20;3.75;;;1.45;;
82990;SDS011;72806;50.832;4.864;2023-09-18T05:28:49;2.45;;;1.55;;
82990;SDS011;72806;50.832;4.864;2023-09-18T05:31:17;3.00;;;1.50;;
82990;SDS011;72806;50.832;4.864;2023-09-18T05:33:44;2.90;;;1.52;;
82990;SDS011;72806;50.832;4.864;2023-09-18T05:36:12;4.68;;;2.22;;
82990;SDS011;72806;50.832;4.864;2023-09-18T05:38:40;4.25;;;1.50;;
82990;SDS011;72806;50.832;4.864;2023-09-18T05:41:07;5.35;;;1.80;;
82990;SDS011;72806;50.832;4.864;2023-09-18T05:43:36;3.42;;;1.80;;
82990;SDS011;72806;50.832;4.864;2023-09-18T05:46:02;4.15;;;1.35;;
82990;SDS011;72806;50.832;4.864;2023-09-18T05:48:29;4.95;;;1.45;;
82990;SDS011;72806;50.832;4.864;2023-09-18T05:50:56;3.40;;;1.48;;
82990;SDS011;72806;50.832;4.864;2023-09-18T05:53:23;4.03;;;1.80;;
82990;SDS011;72806;50.832;4.864;2023-09-18T05:55:50;4.78;;;1.60;;
82990;SDS011;72806;50.832;4.864;2023-09-18T05:58:17;4.05;;;1.60;;
82990;SDS011;72806;50.832;4.864;2023-09-18T06:00:48;5.00;;;1.85;;
82990;SDS011;72806;50.832;4.864;2023-09-18T06:03:15;3.03;;;1.80;;
82990;SDS011;72806;50.832;4.864;2023-09-18T06:05:44;4.93;;;1.80;;
82990;SDS011;72806;50.832;4.864;2023-09-18T06:08:12;5.65;;;1.92;;
82990;SDS011;72806;50.832;4.864;2023-09-18T06:10:39;3.47;;;1.48;;
82990;SDS011;72806;50.832;4.864;2023-09-18T06:13:06;3.13;;;1.52;;
82990;SDS011;72806;50.832;4.864;2023-09-18T06:15:33;5.22;;;1.98;;
82990;SDS011;72806;50.832;4.864;2023-09-18T06:18:01;3.20;;;1.85;;
82990;SDS011;72806;50.832;4.864;2023-09-18T06:20:29;3.00;;;1.40;;
82990;SDS011;72806;50.832;4.864;2023-09-18T06:22:57;5.50;;;1.70;;
82990;SDS011;72806;50.832;4.864;2023-09-18T06:25:24;4.10;;;1.77;;
82990;SDS011;72806;50.832;4.864;2023-09-18T06:27:51;5.15;;;1.60;;
82990;SDS011;72806;50.832;4.864;2023-09-18T06:30:18;4.35;;;1.83;;
82990;SDS011;72806;50.832;4.864;2023-09-18T06:32:45;7.32;;;2.03;;
82990;SDS011;72806;50.832;4.864;2023-09-18T06:35:13;5.53;;;2.13;;
82990;SDS011;72806;50.832;4.864;2023-09-18T06:37:40;4.70;;;1.60;;
82990;SDS011;72806;50.832;4.864;2023-09-18T06:40:07;4.55;;;1.60;;
82990;SDS011;72806;50.832;4.864;2023-09-18T06:42:35;4.47;;;1.70;;
82990;SDS011;72806;50.832;4.864;2023-09-18T06:45:03;1.95;;;1.40;;
82990;SDS011;72806;50.832;4.864;2023-09-18T06:47:31;4.70;;;1.85;;
82990;SDS011;72806;50.832;4.864;2023-09-18T06:49:58;3.42;;;1.60;;
82990;SDS011;72806;50.832;4.864;2023-09-18T06:52:27;1.90;;;1.33;;
82990;SDS011;72806;50.832;4.864;2023-09-18T06:54:54;3.55;;;1.42;;
82990;SDS011;72806;50.832;4.864;2023-09-18T06:57:22;2.72;;;1.40;;
82990;SDS011;72806;50.832;4.864;2023-09-18T06:59:50;3.92;;;1.65;;
82990;SDS011;72806;50.832;4.864;2023-09-18T07:02:18;3.22;;;1.35;;
82990;SDS011;72806;50.832;4.864;2023-09-18T07:04:44;5.75;;;1.48;;
82990;SDS011;72806;50.832;4.864;2023-09-18T07:07:12;3.47;;;1.40;;
82990;SDS011;72806;50.832;4.864;2023-09-18T07:09:40;3.95;;;1.70;;
82990;SDS011;72806;50.832;4.864;2023-09-18T07:12:08;3.38;;;1.77;;
82990;SDS011;72806;50.832;4.864;2023-09-18T07:14:34;3.70;;;1.55;;
82990;SDS011;72806;50.832;4.864;2023-09-18T07:17:03;4.53;;;1.77;;
82990;SDS011;72806;50.832;4.864;2023-09-18T07:19:30;6.95;;;1.60;;
82990;SDS011;72806;50.832;4.864;2023-09-18T07:21:57;6.78;;;1.95;;
82990;SDS011;72806;50.832;4.864;2023-09-18T07:24:24;2.70;;;1.48;;
82990;SDS011;72806;50.832;4.864;2023-09-18T07:26:52;4.28;;;1.55;;
82990;SDS011;72806;50.832;4.864;2023-09-18T07:29:20;3.30;;;1.60;;
82990;SDS011;72806;50.832;4.864;2023-09-18T07:31:47;3.58;;;1.90;;
82990;SDS011;72806;50.832;4.864;2023-09-18T07:34:14;3.35;;;1.50;;
82990;SDS011;72806;50.832;4.864;2023-09-18T07:36:42;7.45;;;1.90;;
82990;SDS011;72806;50.832;4.864;2023-09-18T07:39:10;3.00;;;1.70;;
82990;SDS011;72806;50.832;4.864;2023-09-18T07:41:37;4.15;;;1.58;;
82990;SDS011;72806;50.832;4.864;2023-09-18T07:44:06;2.40;;;1.60;;
82990;SDS011;72806;50.832;4.864;2023-09-18T07:46:33;5.40;;;1.50;;
82990;SDS011;72806;50.832;4.864;2023-09-18T07:49:00;2.25;;;1.40;;
82990;SDS011;72806;50.832;4.864;2023-09-18T07:51:27;3.17;;;1.38;;
82990;SDS011;72806;50.832;4.864;2023-09-18T07:53:55;3.70;;;1.30;;
82990;SDS011;72806;50.832;4.864;2023-09-18T07:56:22;5.97;;;1.50;;
82990;SDS011;72806;50.832;4.864;2023-09-18T07:58:49;4.40;;;1.33;;
82990;SDS011;72806;50.832;4.864;2023-09-18T08:01:17;3.75;;;1.40;;
82990;SDS011;72806;50.832;4.864;2023-09-18T08:03:47;2.53;;;1.20;;
82990;SDS011;72806;50.832;4.864;2023-09-18T08:06:15;6.07;;;1.50;;
82990;SDS011;72806;50.832;4.864;2023-09-18T08:08:44;3.75;;;1.30;;
82990;SDS011;72806;50.832;4.864;2023-09-18T08:11:12;1.65;;;1.08;;
82990;SDS011;72806;50.832;4.864;2023-09-18T08:13:39;6.32;;;1.60;;
82990;SDS011;72806;50.832;4.864;2023-09-18T08:16:07;1.98;;;1.20;;
82990;SDS011;72806;50.832;4.864;2023-09-18T08:18:36;2.28;;;1.38;;
82990;SDS011;72806;50.832;4.864;2023-09-18T08:21:06;2.78;;;1.40;;
82990;SDS011;72806;50.832;4.864;2023-09-18T08:23:34;2.67;;;1.42;;
82990;SDS011;72806;50.832;4.864;2023-09-18T08:26:01;4.63;;;1.40;;
82990;SDS011;72806;50.832;4.864;2023-09-18T08:28:29;2.95;;;1.58;;
82990;SDS011;72806;50.832;4.864;2023-09-18T08:30:56;2.75;;;1.50;;
82990;SDS011;72806;50.832;4.864;2023-09-18T08:33:23;3.78;;;1.73;;
82990;SDS011;72806;50.832;4.864;2023-09-18T08:35:52;2.58;;;1.38;;
82990;SDS011;72806;50.832;4.864;2023-09-18T08:38:19;5.53;;;1.90;;
82990;SDS011;72806;50.832;4.864;2023-09-18T08:40:46;3.72;;;1.67;;
82990;SDS011;72806;50.832;4.864;2023-09-18T08:43:14;2.22;;;1.48;;
82990;SDS011;72806;50.832;4.864;2023-09-18T08:45:43;3.50;;;1.48;;
82990;SDS011;72806;50.832;4.864;2023-09-18T08:48:16;4.65;;;1.70;;
82990;SDS011;72806;50.832;4.864;2023-09-18T08:50:43;5.97;;;1.52;;
82990;SDS011;72806;50.832;4.864;2023-09-18T08:53:13;6.70;;;2.28;;
82990;SDS011;72806;50.832;4.864;2023-09-18T08:55:41;4.20;;;1.50;;
82990;SDS011;72806;50.832;4.864;2023-09-18T08:58:08;2.67;;;1.58;;
82990;SDS011;72806;50.832;4.864;2023-09-18T09:00:36;3.05;;;1.45;;
82990;SDS011;72806;50.832;4.864;2023-09-18T09:03:04;2.03;;;1.73;;
82990;SDS011;72806;50.832;4.864;2023-09-18T09:05:31;2.17;;;1.70;;
82990;SDS011;72806;50.832;4.864;2023-09-18T09:07:58;3.47;;;1.95;;
82990;SDS011;72806;50.832;4.864;2023-09-18T09:10:28;3.67;;;1.50;;
82990;SDS011;72806;50.832;4.864;2023-09-18T09:12:55;3.83;;;1.80;;
82990;SDS011;72806;50.832;4.864;2023-09-18T09:15:24;7.15;;;1.77;;
82990;SDS011;72806;50.832;4.864;2023-09-18T09:18:01;7.68;;;1.83;;
82990;SDS011;72806;50.832;4.864;2023-09-18T09:20:30;4.88;;;1.90;;
82990;SDS011;72806;50.832;4.864;2023-09-18T09:23:01;4.40;;;1.80;;
82990;SDS011;72806;50.832;4.864;2023-09-18T09:25:30;3.88;;;1.90;;
82990;SDS011;72806;50.832;4.864;2023-09-18T09:27:58;5.35;;;1.75;;
82990;SDS011;72806;50.832;4.864;2023-09-18T09:30:27;6.50;;;2.30;;
82990;SDS011;72806;50.832;4.864;2023-09-18T09:32:55;4.93;;;2.13;;
82990;SDS011;72806;50.832;4.864;2023-09-18T09:35:23;5.30;;;2.03;;
82990;SDS011;72806;50.832;4.864;2023-09-18T09:37:53;4.97;;;1.90;;
82990;SDS011;72806;50.832;4.864;2023-09-18T09:40:23;3.70;;;1.98;;
82990;SDS011;72806;50.832;4.864;2023-09-18T09:42:53;4.70;;;2.08;;
82990;SDS011;72806;50.832;4.864;2023-09-18T09:45:26;6.78;;;2.10;;
82990;SDS011;72806;50.832;4.864;2023-09-18T09:47:54;4.60;;;2.17;;
82990;SDS011;72806;50.832;4.864;2023-09-18T09:50:22;6.45;;;1.98;;
82990;SDS011;72806;50.832;4.864;2023-09-18T09:52:51;3.33;;;1.88;;
82990;SDS011;72806;50.832;4.864;2023-09-18T09:55:23;2.30;;;2.05;;
82990;SDS011;72806;50.832;4.864;2023-09-18T09:57:54;4.72;;;2.15;;
82990;SDS011;72806;50.832;4.864;2023-09-18T10:00:25;4.97;;;2.20;;
82990;SDS011;72806;50.832;4.864;2023-09-18T10:02:57;5.70;;;2.08;;
82990;SDS011;72806;50.832;4.864;2023-09-18T10:05:26;5.03;;;1.90;;
82990;SDS011;72806;50.832;4.864;2023-09-18T10:08:00;5.10;;;1.95;;
82990;SDS011;72806;50.832;4.864;2023-09-18T10:10:31;4.63;;;2.00;;
82990;SDS011;72806;50.832;4.864;2023-09-18T10:13:15;4.70;;;2.10;;
82990;SDS011;72806;50.832;4.864;2023-09-18T10:15:44;5.90;;;2.33;;
82990;SDS011;72806;50.832;4.864;2023-09-18T10:21:06;3.20;;;2.22;;
82990;SDS011;72806;50.832;4.864;2023-09-18T10:23:43;4.32;;;2.10;;
82990;SDS011;72806;50.832;4.864;2023-09-18T10:26:20;4.30;;;2.15;;
82990;SDS011;72806;50.832;4.864;2023-09-18T10:28:52;5.60;;;2.00;;
82990;SDS011;72806;50.832;4.864;2023-09-18T10:31:23;5.60;;;2.00;;
82990;SDS011;72806;50.832;4.864;2023-09-18T10:33:52;3.40;;;1.95;;
82990;SDS011;72806;50.832;4.864;2023-09-18T10:36:20;4.40;;;2.00;;
82990;SDS011;72806;50.832;4.864;2023-09-18T10:38:48;4.07;;;1.63;;
82990;SDS011;72806;50.832;4.864;2023-09-18T10:41:17;4.15;;;1.70;;
82990;SDS011;72806;50.832;4.864;2023-09-18T10:43:45;2.20;;;1.52;;
82990;SDS011;72806;50.832;4.864;2023-09-18T10:46:16;6.50;;;2.30;;
82990;SDS011;72806;50.832;4.864;2023-09-18T10:48:43;2.90;;;2.17;;
82990;SDS011;72806;50.832;4.864;2023-09-18T10:51:12;4.05;;;1.55;;
82990;SDS011;72806;50.832;4.864;2023-09-18T10:53:40;3.63;;;1.65;;
82990;SDS011;72806;50.832;4.864;2023-09-18T10:56:07;2.60;;;1.75;;
82990;SDS011;72806;50.832;4.864;2023-09-18T10:58:34;2.65;;;1.73;;
82990;SDS011;72806;50.832;4.864;2023-09-18T11:01:04;4.10;;;1.95;;
82990;SDS011;72806;50.832;4.864;2023-09-18T11:03:33;5.30;;;1.70;;
82990;SDS011;72806;50.832;4.864;2023-09-18T11:06:04;2.65;;;1.70;;
82990;SDS011;72806;50.832;4.864;2023-09-18T11:08:35;4.25;;;1.90;;
82990;SDS011;72806;50.832;4.864;2023-09-18T11:11:09;2.67;;;1.70;;
82990;SDS011;72806;50.832;4.864;2023-09-18T11:13:40;2.78;;;1.20;;
82990;SDS011;72806;50.832;4.864;2023-09-18T11:16:18;4.05;;;1.60;;
82990;SDS011;72806;50.832;4.864;2023-09-18T11:19:11;3.80;;;1.88;;
82990;SDS011;72806;50.832;4.864;2023-09-18T11:21:42;4.72;;;1.80;;
82990;SDS011;72806;50.832;4.864;2023-09-18T11:24:15;3.10;;;1.38;;
82990;SDS011;72806;50.832;4.864;2023-09-18T11:26:44;4.88;;;1.90;;
82990;SDS011;72806;50.832;4.864;2023-09-18T11:29:14;3.35;;;1.50;;
82990;SDS011;72806;50.832;4.864;2023-09-18T11:31:46;5.00;;;1.50;;
82990;SDS011;72806;50.832;4.864;2023-09-18T11:34:20;2.75;;;1.42;;
82990;SDS011;72806;50.832;4.864;2023-09-18T11:36:48;4.20;;;1.85;;
82990;SDS011;72806;50.832;4.864;2023-09-18T11:42:08;2.92;;;1.65;;
82990;SDS011;72806;50.832;4.864;2023-09-18T11:44:36;2.80;;;1.63;;
82990;SDS011;72806;50.832;4.864;2023-09-18T11:47:06;4.40;;;1.92;;
82990;SDS011;72806;50.832;4.864;2023-09-18T11:49:39;1.63;;;1.40;;
82990;SDS011;72806;50.832;4.864;2023-09-18T11:52:08;3.78;;;1.55;;
82990;SDS011;72806;50.832;4.864;2023-09-18T11:54:39;3.20;;;1.80;;
82990;SDS011;72806;50.832;4.864;2023-09-18T11:57:06;3.08;;;1.40;;
82990;SDS011;72806;50.832;4.864;2023-09-18T11:59:34;3.65;;;1.40;;
82990;SDS011;72806;50.832;4.864;2023-09-18T12:02:03;3.90;;;1.70;;
82990;SDS011;72806;50.832;4.864;2023-09-18T12:04:33;4.82;;;1.70;;
82990;SDS011;72806;50.832;4.864;2023-09-18T12:07:02;6.60;;;1.90;;
82990;SDS011;72806;50.832;4.864;2023-09-18T12:09:30;2.72;;;1.60;;
82990;SDS011;72806;50.832;4.864;2023-09-18T12:11:58;4.53;;;1.60;;
82990;SDS011;72806;50.832;4.864;2023-09-18T12:14:29;3.83;;;2.00;;
82990;SDS011;72806;50.832;4.864;2023-09-18T12:16:58;5.50;;;1.80;;
82990;SDS011;72806;50.832;4.864;2023-09-18T12:19:27;3.17;;;1.60;;
82990;SDS011;72806;50.832;4.864;2023-09-18T12:21:54;3.55;;;1.63;;
82990;SDS011;72806;50.832;4.864;2023-09-18T12:24:22;1.77;;;1.48;;
82990;SDS011;72806;50.832;4.864;2023-09-18T12:26:50;2.45;;;1.50;;
82990;SDS011;72806;50.832;4.864;2023-09-18T12:29:18;2.75;;;1.58;;
82990;SDS011;72806;50.832;4.864;2023-09-18T12:31:45;3.88;;;1.40;;
82990;SDS011;72806;50.832;4.864;2023-09-18T12:34:16;3.50;;;1.30;;
82990;SDS011;72806;50.832;4.864;2023-09-18T12:36:44;1.88;;;1.48;;
82990;SDS011;72806;50.832;4.864;2023-09-18T12:39:13;3.17;;;1.20;;
82990;SDS011;72806;50.832;4.864;2023-09-18T12:41:42;2.67;;;1.50;;
82990;SDS011;72806;50.832;4.864;2023-09-18T12:44:10;3.25;;;1.48;;
82990;SDS011;72806;50.832;4.864;2023-09-18T12:46:39;3.97;;;1.65;;
82990;SDS011;72806;50.832;4.864;2023-09-18T12:49:19;3.35;;;1.40;;
82990;SDS011;72806;50.832;4.864;2023-09-18T12:51:55;2.38;;;1.25;;
82990;SDS011;72806;50.832;4.864;2023-09-18T12:54:36;3.10;;;1.45;;
82990;SDS011;72806;50.832;4.864;2023-09-18T12:57:08;3.50;;;1.40;;
82990;SDS011;72806;50.832;4.864;2023-09-18T12:59:37;2.60;;;1.40;;
82990;SDS011;72806;50.832;4.864;2023-09-18T13:02:04;3.85;;;1.30;;
82990;SDS011;72806;50.832;4.864;2023-09-18T13:04:32;2.22;;;1.50;;
82990;SDS011;72806;50.832;4.864;2023-09-18T13:07:09;5.47;;;1.50;;
82990;SDS011;72806;50.832;4.864;2023-09-18T13:09:37;5.32;;;1.65;;
82990;SDS011;72806;50.832;4.864;2023-09-18T13:12:05;3.55;;;1.15;;
82990;SDS011;72806;50.832;4.864;2023-09-18T13:17:36;4.00;;;1.58;;
82990;SDS011;72806;50.832;4.864;2023-09-18T13:20:11;2.65;;;1.40;;
82990;SDS011;72806;50.832;4.864;2023-09-18T13:22:40;3.08;;;1.30;;
82990;SDS011;72806;50.832;4.864;2023-09-18T13:25:07;2.67;;;1.38;;
82990;SDS011;72806;50.832;4.864;2023-09-18T13:27:37;2.28;;;1.10;;
82990;SDS011;72806;50.832;4.864;2023-09-18T13:30:05;4.57;;;1.50;;
82990;SDS011;72806;50.832;4.864;2023-09-18T13:32:34;3.30;;;1.33;;
82990;SDS011;72806;50.832;4.864;2023-09-18T13:35:02;4.03;;;1.30;;
82990;SDS011;72806;50.832;4.864;2023-09-18T13:37:31;4.57;;;1.20;;
82990;SDS011;72806;50.832;4.864;2023-09-18T13:39:59;2.42;;;1.35;;
82990;SDS011;72806;50.832;4.864;2023-09-18T13:42:28;1.55;;;1.35;;
82990;SDS011;72806;50.832;4.864;2023-09-18T13:44:58;2.72;;;1.42;;
82990;SDS011;72806;50.832;4.864;2023-09-18T13:47:25;4.95;;;1.42;;
82990;SDS011;72806;50.832;4.864;2023-09-18T13:49:53;6.13;;;1.50;;
82990;SDS011;72806;50.832;4.864;2023-09-18T13:52:22;2.80;;;1.20;;
82990;SDS011;72806;50.832;4.864;2023-09-18T13:54:49;3.00;;;1.50;;
82990;SDS011;72806;50.832;4.864;2023-09-18T13:57:17;3.30;;;1.50;;
82990;SDS011;72806;50.832;4.864;2023-09-18T13:59:44;3.92;;;1.30;;
82990;SDS011;72806;50.832;4.864;2023-09-18T14:02:13;1.75;;;1.38;;
82990;SDS011;72806;50.832;4.864;2023-09-18T14:04:41;2.10;;;1.30;;
82990;SDS011;72806;50.832;4.864;2023-09-18T14:07:08;2.88;;;1.25;;
82990;SDS011;72806;50.832;4.864;2023-09-18T14:09:36;2.58;;;1.10;;
82990;SDS011;72806;50.832;4.864;2023-09-18T14:12:04;1.75;;;1.30;;
82990;SDS011;72806;50.832;4.864;2023-09-18T14:14:32;4.05;;;1.45;;
82990;SDS011;72806;50.832;4.864;2023-09-18T14:17:00;6.75;;;2.10;;
82990;SDS011;72806;50.832;4.864;2023-09-18T14:19:29;3.00;;;2.03;;
82990;SDS011;72806;50.832;4.864;2023-09-18T14:21:56;3.60;;;1.60;;
82990;SDS011;72806;50.832;4.864;2023-09-18T14:24:26;6.20;;;2.17;;
82990;SDS011;72806;50.832;4.864;2023-09-18T14:26:53;2.53;;;1.20;;
82990;SDS011;72806;50.832;4.864;2023-09-18T14:29:21;1.42;;;1.25;;
82990;SDS011;72806;50.832;4.864;2023-09-18T14:31:48;3.83;;;1.35;;
82990;SDS011;72806;50.832;4.864;2023-09-18T14:34:15;3.45;;;1.50;;
82990;SDS011;72806;50.832;4.864;2023-09-18T14:36:44;2.50;;;1.45;;
82990;SDS011;72806;50.832;4.864;2023-09-18T14:39:11;3.00;;;1.67;;
82990;SDS011;72806;50.832;4.864;2023-09-18T14:41:38;5.47;;;1.55;;
82990;SDS011;72806;50.832;4.864;2023-09-18T14:44:06;1.42;;;1.20;;
82990;SDS011;72806;50.832;4.864;2023-09-18T14:46:35;2.88;;;1.17;;
82990;SDS011;72806;50.832;4.864;2023-09-18T14:49:03;3.95;;;1.67;;
82990;SDS011;72806;50.832;4.864;2023-09-18T14:51:32;2.38;;;1.30;;
82990;SDS011;72806;50.832;4.864;2023-09-18T14:54:01;3.33;;;1.40;;
82990;SDS011;72806;50.832;4.864;2023-09-18T14:56:29;1.80;;;1.27;;
82990;SDS011;72806;50.832;4.864;2023-09-18T14:58:57;2.40;;;1.30;;
82990;SDS011;72806;50.832;4.864;2023-09-18T15:01:24;3.70;;;1.40;;